createdAt,value
2022-10-16T00:00:33.315Z,1012.525574
2022-10-16T00:02:56.068Z,1012.416992
2022-10-16T00:03:36.934Z,1012.4328
2022-10-16T00:04:37.108Z,1012.390015
2022-10-16T00:05:38.699Z,1012.487244
2022-10-16T00:06:35.937Z,1012.546143
2022-10-16T00:07:40.745Z,1012.624634
2022-10-16T00:08:36.402Z,1012.632751
2022-10-16T00:09:46.274Z,1012.607605
2022-10-16T00:10:44.529Z,1012.679077
2022-10-16T00:12:43.245Z,1012.699951
2022-10-16T00:13:35.656Z,1012.63324
2022-10-16T00:14:35.039Z,1012.593811
2022-10-16T00:15:31.720Z,1012.642944
2022-10-16T00:17:29.423Z,1012.695862
2022-10-16T00:18:29.076Z,1012.671753
2022-10-16T00:19:24.437Z,1012.621338
2022-10-16T00:20:25.438Z,1012.693909
2022-10-16T00:22:26.803Z,1012.616638
2022-10-16T00:23:18.717Z,1012.608276
2022-10-16T00:24:19.289Z,1012.608276
2022-10-16T00:25:17.607Z,1012.638855
2022-10-16T00:26:19.557Z,1012.676941
2022-10-16T00:27:19.336Z,1012.776428
2022-10-16T00:28:13.590Z,1012.833984
2022-10-16T00:29:15.357Z,1012.726196
2022-10-16T00:30:13.301Z,1012.737
2022-10-16T00:31:14.363Z,1012.840149
2022-10-16T00:32:05.809Z,1012.651367
2022-10-16T00:33:06.905Z,1012.608459
2022-10-16T00:34:07.266Z,1012.708618
2022-10-16T00:35:36.801Z,1012.743347
2022-10-16T00:36:16.774Z,1012.71344
2022-10-16T00:38:16.311Z,1012.718323
2022-10-16T00:39:15.839Z,1012.705261
2022-10-16T00:40:15.935Z,1012.700439
2022-10-16T00:41:13.822Z,1012.67688
2022-10-16T00:42:14.135Z,1012.695801
2022-10-16T00:43:14.416Z,1012.818054
2022-10-16T00:44:15.713Z,1012.756165
2022-10-16T00:45:09.734Z,1012.76416
2022-10-16T00:46:07.457Z,1012.76416
2022-10-16T00:48:10.997Z,1012.810059
2022-10-16T00:49:05.071Z,1012.759338
2022-10-16T00:50:11.269Z,1012.778259
2022-10-16T00:51:06.772Z,1012.797363
2022-10-16T00:53:07.637Z,1012.785278
2022-10-16T00:54:06.009Z,1012.776855
2022-10-16T00:55:05.883Z,1012.75824
2022-10-16T00:56:10.145Z,1012.819702
2022-10-16T00:58:06.381Z,1012.801147
2022-10-16T00:59:10.365Z,1012.843262
2022-10-16T01:00:05.539Z,1012.798889
2022-10-16T01:01:10.819Z,1012.841736
2022-10-16T01:03:20.409Z,1012.717957
2022-10-16T01:04:13.080Z,1012.756165
2022-10-16T01:05:11.714Z,1012.659363
2022-10-16T01:06:12.646Z,1012.700867
2022-10-16T01:08:14.355Z,1012.696045
2022-10-16T01:10:36.488Z,1012.665833
2022-10-16T01:12:21.575Z,1012.682983
2022-10-16T01:13:20.819Z,1012.759155
2022-10-16T01:14:32.308Z,1012.776672
2022-10-16T01:15:30.320Z,1012.744934
2022-10-16T01:17:33.123Z,1012.684875
2022-10-16T01:18:40.837Z,1012.722961
2022-10-16T01:19:41.440Z,1012.812195
2022-10-16T01:20:45.659Z,1012.778259
2022-10-16T01:22:57.184Z,1012.828186
2022-10-16T01:23:57.308Z,1012.81488
2022-10-16T01:24:58.798Z,1012.883545
2022-10-16T01:25:55.812Z,1012.894653
2022-10-16T01:27:09.062Z,1012.827698
2022-10-16T01:28:05.883Z,1012.854675
2022-10-16T01:29:05.035Z,1012.827698
2022-10-16T01:30:06.602Z,1012.793213
2022-10-16T01:31:03.692Z,1012.831238
2022-10-16T01:33:03.121Z,1012.722046
2022-10-16T01:34:09.528Z,1012.706238
2022-10-16T01:35:04.224Z,1012.736145
2022-10-16T01:36:05.065Z,1012.682251
2022-10-16T01:38:05.625Z,1012.809204
2022-10-16T01:39:07.245Z,1012.828125
2022-10-16T01:40:32.212Z,1012.855042
2022-10-16T01:41:11.980Z,1012.867859
2022-10-16T01:43:12.851Z,1012.822876
2022-10-16T01:44:09.123Z,1012.753174
2022-10-16T01:45:08.772Z,1012.821838
2022-10-16T01:46:08.004Z,1012.733215
2022-10-16T01:48:20.255Z,1012.742615
2022-10-16T01:49:16.501Z,1012.703003
2022-10-16T01:50:19.789Z,1012.786987
2022-10-16T01:51:16.287Z,1012.717102
2022-10-16T01:53:13.571Z,1012.835999
2022-10-16T01:54:13.538Z,1012.909119
2022-10-16T01:55:08.834Z,1012.828186
2022-10-16T01:56:07.203Z,1012.793213
2022-10-16T01:58:10.342Z,1012.823486
2022-10-16T01:59:13.544Z,1012.785461
2022-10-16T02:00:08.248Z,1012.80127
2022-10-16T02:01:12.999Z,1012.817078
2022-10-16T02:03:08.344Z,1012.795044
2022-10-16T02:04:01.257Z,1012.786987
2022-10-16T02:05:04.099Z,1012.84552
2022-10-16T02:06:05.815Z,1012.84552
2022-10-16T02:07:07.977Z,1012.896301
2022-10-16T02:08:05.563Z,1012.880554
2022-10-16T02:09:08.797Z,1012.861328
2022-10-16T02:10:08.896Z,1012.877258
2022-10-16T02:11:12.423Z,1012.804565
2022-10-16T02:13:05.565Z,1012.882019
2022-10-16T02:14:14.309Z,1012.86615
2022-10-16T02:15:13.653Z,1012.893127
2022-10-16T02:16:08.954Z,1012.831482
2022-10-16T02:18:06.851Z,1012.855042
2022-10-16T02:19:09.499Z,1012.828125
2022-10-16T02:20:06.113Z,1012.788574
2022-10-16T02:21:05.796Z,1012.837769
2022-10-16T02:22:01.969Z,1012.795044
2022-10-16T02:23:03.856Z,1012.883606
2022-10-16T02:24:00.170Z,1012.813965
2022-10-16T02:25:03.099Z,1012.82489
2022-10-16T02:25:56.530Z,1012.82196
2022-10-16T02:28:00.991Z,1012.861328
2022-10-16T02:29:03.219Z,1012.818665
2022-10-16T02:29:59.582Z,1012.861328
2022-10-16T02:31:04.053Z,1012.812256
2022-10-16T02:31:36.676Z,1012.809204
2022-10-16T02:33:18.825Z,1012.874084
2022-10-16T02:33:58.639Z,1012.864136
2022-10-16T02:34:56.195Z,1012.866089
2022-10-16T02:35:59.088Z,1012.888367
2022-10-16T02:36:55.546Z,1012.877197
2022-10-16T02:37:55.479Z,1012.905823
2022-10-16T02:38:52.353Z,1012.951294
2022-10-16T02:39:52.374Z,1012.954895
2022-10-16T02:40:53.001Z,1012.954895
2022-10-16T02:42:48.082Z,1012.927917
2022-10-16T02:43:50.546Z,1012.919556
2022-10-16T02:44:43.043Z,1012.881592
2022-10-16T02:45:47.435Z,1012.959717
2022-10-16T02:47:49.584Z,1012.91803
2022-10-16T02:48:47.691Z,1012.875183
2022-10-16T02:49:52.159Z,1012.875183
2022-10-16T02:50:49.375Z,1012.875183
2022-10-16T02:51:50.450Z,1012.910461
2022-10-16T02:52:47.764Z,1012.875183
2022-10-16T02:53:50.585Z,1012.867676
2022-10-16T02:54:47.043Z,1012.945007
2022-10-16T02:55:52.490Z,1012.955994
2022-10-16T02:56:44.963Z,1012.840759
2022-10-16T02:57:49.399Z,1012.856567
2022-10-16T02:58:43.825Z,1012.906982
2022-10-16T02:59:45.715Z,1012.861389
2022-10-16T03:00:42.047Z,1012.866089
2022-10-16T03:02:42.376Z,1012.830872
2022-10-16T03:03:38.082Z,1012.904175
2022-10-16T03:04:41.032Z,1012.813843
2022-10-16T03:05:40.633Z,1012.953369
2022-10-16T03:07:38.514Z,1012.9422
2022-10-16T03:08:50.538Z,1012.889465
2022-10-16T03:09:46.156Z,1012.848083
2022-10-16T03:10:51.614Z,1012.940186
2022-10-16T03:11:44.684Z,1012.952881
2022-10-16T03:12:44.062Z,1013.006775
2022-10-16T03:13:49.714Z,1012.990967
2022-10-16T03:14:44.363Z,1012.96405
2022-10-16T03:16:19.621Z,1012.963745
2022-10-16T03:18:05.188Z,1012.911438
2022-10-16T03:18:46.786Z,1012.923828
2022-10-16T03:19:46.040Z,1012.941284
2022-10-16T03:20:51.066Z,1012.938232
2022-10-16T03:21:55.343Z,1013.011658
2022-10-16T03:22:53.369Z,1012.947937
2022-10-16T03:23:56.568Z,1012.970093
2022-10-16T03:24:52.768Z,1012.935364
2022-10-16T03:25:53.941Z,1012.87677
2022-10-16T03:26:54.011Z,1012.922668
2022-10-16T03:27:58.491Z,1012.932251
2022-10-16T03:28:55.092Z,1012.866211
2022-10-16T03:29:57.986Z,1012.904175
2022-10-16T03:30:59.547Z,1012.91803
2022-10-16T03:31:57.734Z,1012.929199
2022-10-16T03:32:58.130Z,1012.910583
2022-10-16T03:33:56.458Z,1012.886292
2022-10-16T03:35:03.600Z,1012.870483
2022-10-16T03:35:59.902Z,1012.905823
2022-10-16T03:37:02.047Z,1012.894653
2022-10-16T03:38:00.950Z,1012.927917
2022-10-16T03:39:10.968Z,1012.946472
2022-10-16T03:40:05.743Z,1012.935486
2022-10-16T03:41:11.023Z,1012.943909
2022-10-16T03:43:09.054Z,1013.013611
2022-10-16T03:44:04.944Z,1013.032166
2022-10-16T03:45:07.472Z,1013.078613
2022-10-16T03:46:10.369Z,1013.035706
2022-10-16T03:47:05.828Z,1013.113098
2022-10-16T03:48:12.735Z,1013.089722
2022-10-16T03:49:08.862Z,1013.008728
2022-10-16T03:50:09.043Z,1013.02478
2022-10-16T03:51:10.462Z,1013.113098
2022-10-16T03:53:14.141Z,1013.078613
2022-10-16T03:54:07.925Z,1013.213379
2022-10-16T03:55:14.522Z,1013.116638
2022-10-16T03:56:11.045Z,1013.078613
2022-10-16T03:57:53.845Z,1012.960815
2022-10-16T03:59:27.312Z,1012.96521
2022-10-16T04:01:09.335Z,1012.94104
2022-10-16T04:05:07.078Z,1013.008118
2022-10-16T04:05:26.369Z,1013.003052
2022-10-16T04:06:28.446Z,1013.046875
2022-10-16T04:07:28.941Z,1013.096802
2022-10-16T04:08:25.507Z,1013.160645
2022-10-16T04:09:24.954Z,1013.175232
2022-10-16T04:10:20.229Z,1013.084717
2022-10-16T04:11:24.164Z,1013.015625
2022-10-16T04:12:27.638Z,1012.975037
2022-10-16T04:13:25.603Z,1013.052856
2022-10-16T04:14:24.746Z,1013.124329
2022-10-16T04:15:18.514Z,1013.165649
2022-10-16T04:17:21.625Z,1013.28894
2022-10-16T04:18:15.870Z,1013.287415
2022-10-16T04:19:21.250Z,1013.277954
2022-10-16T04:20:17.465Z,1013.235168
2022-10-16T04:21:19.322Z,1013.249878
2022-10-16T04:22:21.765Z,1013.231934
2022-10-16T04:23:17.987Z,1013.316406
2022-10-16T04:24:16.148Z,1013.292114
2022-10-16T04:25:09.664Z,1013.256348
2022-10-16T04:26:16.099Z,1013.290955
2022-10-16T04:28:12.229Z,1013.262573
2022-10-16T04:29:13.161Z,1013.314758
2022-10-16T04:30:06.879Z,1013.363831
2022-10-16T04:31:13.194Z,1013.370178
2022-10-16T04:32:07.777Z,1013.351257
2022-10-16T04:33:58.877Z,1013.459045
2022-10-16T04:34:58.267Z,1013.462524
2022-10-16T04:36:38.622Z,1013.538635
2022-10-16T04:38:05.811Z,1013.536804
2022-10-16T04:39:05.579Z,1013.40686
2022-10-16T04:40:07.732Z,1013.463867
2022-10-16T04:41:04.172Z,1013.468567
2022-10-16T04:42:06.233Z,1013.444702
2022-10-16T04:43:06.424Z,1013.530212
2022-10-16T04:44:06.106Z,1013.55719
2022-10-16T04:45:02.511Z,1013.568237
2022-10-16T04:46:03.120Z,1013.447998
2022-10-16T04:48:03.202Z,1013.489502
2022-10-16T04:49:01.314Z,1013.573059
2022-10-16T04:50:04.828Z,1013.495911
2022-10-16T04:51:10.094Z,1013.506836
2022-10-16T04:53:03.613Z,1013.455627
2022-10-16T04:54:06.179Z,1013.493774
2022-10-16T04:55:01.070Z,1013.549133
2022-10-16T04:56:04.593Z,1013.557617
2022-10-16T04:58:02.688Z,1013.551147
2022-10-16T04:59:02.090Z,1013.585754
2022-10-16T05:00:02.724Z,1013.643066
2022-10-16T05:00:59.217Z,1013.654114
2022-10-16T05:02:54.621Z,1013.654114
2022-10-16T05:03:57.947Z,1013.672729
2022-10-16T05:04:59.712Z,1013.807434
2022-10-16T05:06:02.912Z,1013.818604
2022-10-16T05:07:01.325Z,1013.807434
2022-10-16T05:08:04.307Z,1013.826965
2022-10-16T05:09:07.586Z,1013.852295
2022-10-16T05:10:11.749Z,1013.847473
2022-10-16T05:11:06.200Z,1013.801331
2022-10-16T05:12:06.430Z,1013.83313
2022-10-16T05:13:09.409Z,1013.755554
2022-10-16T05:15:08.811Z,1013.815735
2022-10-16T05:15:49.219Z,1013.847412
2022-10-16T05:17:47.241Z,1013.871216
2022-10-16T05:18:44.854Z,1013.866516
2022-10-16T05:19:44.836Z,1013.848877
2022-10-16T05:20:40.692Z,1013.88678
2022-10-16T05:21:40.729Z,1013.890137
2022-10-16T05:22:38.025Z,1013.866638
2022-10-16T05:23:38.537Z,1013.888855
2022-10-16T05:24:33.946Z,1013.870911
2022-10-16T05:25:34.351Z,1013.955261
2022-10-16T05:27:31.822Z,1014.027649
2022-10-16T05:28:29.677Z,1014.112122
2022-10-16T05:29:24.150Z,1014.083069
2022-10-16T05:30:20.879Z,1014.01062
2022-10-16T05:31:22.560Z,1014.013916
2022-10-16T05:32:17.768Z,1014.064514
2022-10-16T05:33:16.698Z,1014.043762
2022-10-16T05:34:13.766Z,1014.001038
2022-10-16T05:35:13.073Z,1014.092896
2022-10-16T05:36:11.970Z,1014.065918
2022-10-16T05:37:07.833Z,1013.985107
2022-10-16T05:38:10.294Z,1014.065918
2022-10-16T05:39:10.453Z,1014.053284
2022-10-16T05:40:06.822Z,1014.010559
2022-10-16T05:41:09.720Z,1014.080322
2022-10-16T05:43:06.336Z,1014.015198
2022-10-16T05:44:00.704Z,1014.042175
2022-10-16T05:44:57.544Z,1014.096008
2022-10-16T05:46:00.908Z,1014.040527
2022-10-16T05:47:59.954Z,1013.975525
2022-10-16T05:48:54.582Z,1014.002441
2022-10-16T05:50:00.976Z,1013.947083
2022-10-16T05:51:01.069Z,1013.996033
2022-10-16T05:51:58.822Z,1014.154419
2022-10-16T05:52:58.745Z,1014.192444
2022-10-16T05:53:59.347Z,1014.173645
2022-10-16T05:55:01.454Z,1014.162598
2022-10-16T05:55:58.089Z,1014.124634
2022-10-16T05:57:52.841Z,1014.199219
2022-10-16T05:59:27.534Z,1014.330322
2022-10-16T06:00:34.443Z,1014.269165
2022-10-16T06:02:29.205Z,1014.282043
2022-10-16T06:03:24.001Z,1014.246765
2022-10-16T06:04:24.489Z,1014.297363
2022-10-16T06:05:20.034Z,1014.296143
2022-10-16T06:06:44.479Z,1014.365906
2022-10-16T06:07:25.621Z,1014.379944
2022-10-16T06:08:25.616Z,1014.329285
2022-10-16T06:09:20.658Z,1014.375122
2022-10-16T06:10:25.354Z,1014.42749
2022-10-16T06:11:26.244Z,1014.436768
2022-10-16T06:12:23.443Z,1014.432495
2022-10-16T06:13:25.857Z,1014.454651
2022-10-16T06:14:20.180Z,1014.533264
2022-10-16T06:15:18.841Z,1014.533264
2022-10-16T06:16:14.053Z,1014.666748
2022-10-16T06:17:13.348Z,1014.601807
2022-10-16T06:18:13.774Z,1014.631409
2022-10-16T06:19:09.168Z,1014.565186
2022-10-16T06:20:11.439Z,1014.552612
2022-10-16T06:21:09.723Z,1014.555542
2022-10-16T06:23:13.902Z,1014.652344
2022-10-16T06:24:12.186Z,1014.620483
2022-10-16T06:25:11.899Z,1014.655457
2022-10-16T06:26:15.562Z,1014.720459
2022-10-16T06:28:14.034Z,1014.618835
2022-10-16T06:29:12.302Z,1014.702759
2022-10-16T06:30:15.177Z,1014.68689
2022-10-16T06:31:15.699Z,1014.721802
2022-10-16T06:33:14.225Z,1014.65509
2022-10-16T06:34:12.453Z,1014.65509
2022-10-16T06:35:15.835Z,1014.65509
2022-10-16T06:36:11.124Z,1014.65509
2022-10-16T06:37:47.999Z,1014.744141
2022-10-16T06:38:43.787Z,1014.671631
2022-10-16T06:39:46.147Z,1014.780701
2022-10-16T06:40:41.771Z,1014.853882
2022-10-16T06:42:38.418Z,1014.795227
2022-10-16T06:43:36.778Z,1014.822205
2022-10-16T06:44:39.487Z,1014.802734
2022-10-16T06:46:26.634Z,1014.820801
2022-10-16T06:48:03.323Z,1014.807739
2022-10-16T06:49:07.165Z,1014.861633
2022-10-16T06:50:03.445Z,1014.891785
2022-10-16T06:51:02.365Z,1014.875916
2022-10-16T06:52:56.094Z,1015.016846
2022-10-16T06:54:03.256Z,1015.059814
2022-10-16T06:54:04.484Z,1015.059814
2022-10-16T06:54:06.644Z,1015.059814
2022-10-16T06:54:51.092Z,1015.067505
2022-10-16T06:55:50.326Z,1015.075623
2022-10-16T06:56:45.681Z,1015.083313
2022-10-16T06:57:45.273Z,1015.156433
2022-10-16T06:58:40.054Z,1015.113647
2022-10-16T06:59:37.208Z,1015.156433
2022-10-16T07:00:34.151Z,1015.172302
2022-10-16T07:02:30.537Z,1015.233887
2022-10-16T07:03:26.889Z,1015.19928
2022-10-16T07:04:25.815Z,1015.221436
2022-10-16T07:05:21.167Z,1015.283081
2022-10-16T07:06:20.090Z,1015.248413
2022-10-16T07:07:14.656Z,1015.283081
2022-10-16T07:08:14.996Z,1015.274048
2022-10-16T07:09:10.342Z,1015.316711
2022-10-16T07:10:09.923Z,1015.397522
2022-10-16T07:11:05.597Z,1015.362305
2022-10-16T07:12:08.453Z,1015.432068
2022-10-16T07:13:00.270Z,1015.440491
2022-10-16T07:13:59.756Z,1015.436951
2022-10-16T07:14:54.211Z,1015.429382
2022-10-16T07:15:53.651Z,1015.48761
2022-10-16T07:17:50.140Z,1015.483215
2022-10-16T07:18:44.733Z,1015.517883
2022-10-16T07:19:41.966Z,1015.514465
2022-10-16T07:20:41.381Z,1015.617981
2022-10-16T07:22:41.530Z,1015.609619
2022-10-16T07:23:34.136Z,1015.617981
2022-10-16T07:24:36.071Z,1015.633301
2022-10-16T07:25:31.254Z,1015.711182
2022-10-16T07:26:28.285Z,1015.638123
2022-10-16T07:27:27.390Z,1015.611145
2022-10-16T07:28:23.431Z,1015.665039
2022-10-16T07:29:28.271Z,1015.641357
2022-10-16T07:31:01.284Z,1015.671997
2022-10-16T07:32:04.620Z,1015.599792
2022-10-16T07:33:28.275Z,1015.693604
2022-10-16T07:34:09.929Z,1015.647827
2022-10-16T07:35:06.339Z,1015.650391
2022-10-16T07:36:06.428Z,1015.685791
2022-10-16T07:37:00.928Z,1015.698303
2022-10-16T07:37:59.121Z,1015.745728
2022-10-16T07:38:55.634Z,1015.734497
2022-10-16T07:39:00.005Z,1015.734497
2022-10-16T07:39:53.099Z,1015.776123
2022-10-16T07:40:46.722Z,1015.778748
2022-10-16T07:41:48.085Z,1015.684021
2022-10-16T07:42:39.618Z,1015.783447
2022-10-16T07:43:38.265Z,1015.786743
2022-10-16T07:44:33.546Z,1015.711975
2022-10-16T07:45:31.755Z,1015.842041
2022-10-16T07:46:26.298Z,1015.909851
2022-10-16T07:48:17.900Z,1015.871887
2022-10-16T07:49:16.991Z,1015.971924
2022-10-16T07:50:15.526Z,1015.956055
2022-10-16T07:51:09.111Z,1015.967102
2022-10-16T07:53:04.189Z,1016.023987
2022-10-16T07:54:05.242Z,1015.98175
2022-10-16T07:54:56.680Z,1016.032043
2022-10-16T07:55:54.405Z,1016.001953
2022-10-16T07:56:53.931Z,1016.039795
2022-10-16T07:57:46.028Z,1016.036865
2022-10-16T07:58:43.384Z,1016.041687
2022-10-16T07:59:41.368Z,1016.036865
2022-10-16T08:00:34.943Z,1016.07489
2022-10-16T08:02:27.934Z,1016.060608
2022-10-16T08:03:24.975Z,1016.068665
2022-10-16T08:04:22.007Z,1016.103516
2022-10-16T08:05:15.574Z,1016.117859
2022-10-16T08:06:47.793Z,1016.095581
2022-10-16T08:07:28.005Z,1016.02124
2022-10-16T08:08:28.028Z,1016.127869
2022-10-16T08:09:22.998Z,1016.121826
2022-10-16T08:10:20.827Z,1016.17218
2022-10-16T08:11:22.420Z,1016.210083
2022-10-16T08:13:22.126Z,1016.237061
2022-10-16T08:14:15.643Z,1016.293213
2022-10-16T08:15:15.719Z,1016.255127
2022-10-16T08:16:11.058Z,1016.271118
2022-10-16T08:18:07.267Z,1016.272461
2022-10-16T08:19:06.430Z,1016.434204
2022-10-16T08:20:01.567Z,1016.411987
2022-10-16T08:21:00.972Z,1016.324768
2022-10-16T08:21:57.792Z,1016.397644
2022-10-16T08:23:01.713Z,1016.389893
2022-10-16T08:23:58.399Z,1016.413635
2022-10-16T08:24:55.858Z,1016.364441
2022-10-16T08:25:52.038Z,1016.353394
2022-10-16T08:27:49.327Z,1016.374084
2022-10-16T08:28:48.628Z,1016.448853
2022-10-16T08:29:44.166Z,1016.519836
2022-10-16T08:30:44.174Z,1016.508911
2022-10-16T08:31:39.370Z,1016.506165
2022-10-16T08:32:39.513Z,1016.448608
2022-10-16T08:33:34.860Z,1016.5047
2022-10-16T08:34:35.006Z,1016.505981
2022-10-16T08:35:31.220Z,1016.599487
2022-10-16T08:36:29.916Z,1016.534485
2022-10-16T08:37:32.868Z,1016.574402
2022-10-16T08:38:26.362Z,1016.56012
2022-10-16T08:39:29.180Z,1016.431213
2022-10-16T08:41:25.754Z,1016.620483
2022-10-16T08:43:58.372Z,1016.556946
2022-10-16T08:46:01.838Z,1016.486572
2022-10-16T08:46:07.458Z,1016.489136
2022-10-16T08:48:07.534Z,1016.541992
2022-10-16T08:49:04.462Z,1016.55249
2022-10-16T08:50:04.650Z,1016.57782
2022-10-16T08:51:00.701Z,1016.572083
2022-10-16T08:52:57.464Z,1016.57782
2022-10-16T08:53:31.846Z,1016.644897
2022-10-16T08:54:31.771Z,1016.665588
2022-10-16T08:55:26.951Z,1016.723816
2022-10-16T08:56:26.992Z,1016.811951
2022-10-16T08:57:24.364Z,1016.80719
2022-10-16T08:58:21.985Z,1016.881897
2022-10-16T08:59:16.894Z,1016.85022
2022-10-16T09:00:13.966Z,1016.841919
2022-10-16T09:01:13.715Z,1016.813599
2022-10-16T09:03:05.759Z,1016.834106
2022-10-16T09:04:05.036Z,1016.922241
2022-10-16T09:04:59.689Z,1016.859985
2022-10-16T09:05:56.767Z,1016.869751
2022-10-16T09:06:55.944Z,1016.883972
2022-10-16T09:07:50.423Z,1016.906372
2022-10-16T09:08:47.843Z,1016.895264
2022-10-16T09:09:46.831Z,1016.925537
2022-10-16T09:10:41.401Z,1016.976257
2022-10-16T09:11:37.866Z,1016.917419
2022-10-16T09:12:36.730Z,1016.890442
2022-10-16T09:15:03.327Z,1016.923889
2022-10-16T09:15:09.132Z,1016.923645
2022-10-16T09:16:07.789Z,1016.980103
2022-10-16T09:18:03.509Z,1016.984863
2022-10-16T09:19:03.697Z,1016.898987
2022-10-16T09:19:59.210Z,1017.00708
2022-10-16T09:20:59.505Z,1017.029541
2022-10-16T09:21:55.734Z,1017.044373
2022-10-16T09:22:55.504Z,1017.141296
2022-10-16T09:23:51.049Z,1017.171143
2022-10-16T09:24:54.389Z,1017.094604
2022-10-16T09:25:47.015Z,1017.067627
2022-10-16T09:26:49.709Z,1017.114258
2022-10-16T09:27:42.685Z,1017.129639
2022-10-16T09:28:43.259Z,1017.077148
2022-10-16T09:29:39.321Z,1017.057922
2022-10-16T09:30:38.605Z,1017.104248
2022-10-16T09:31:34.449Z,1017.204346
2022-10-16T09:32:34.635Z,1017.120117
2022-10-16T09:33:30.071Z,1017.162964
2022-10-16T09:34:30.376Z,1017.140686
2022-10-16T09:35:26.515Z,1017.145447
2022-10-16T09:36:28.753Z,1017.175476
2022-10-16T09:38:21.406Z,1017.184998
2022-10-16T09:39:21.099Z,1017.220154
2022-10-16T09:40:16.617Z,1017.228882
2022-10-16T09:41:13.957Z,1017.217834
2022-10-16T09:42:13.548Z,1017.255981
2022-10-16T09:43:08.707Z,1017.221436
2022-10-16T09:44:08.033Z,1017.224304
2022-10-16T09:45:38.633Z,1017.154846
2022-10-16T09:46:18.125Z,1017.170227
2022-10-16T09:47:16.486Z,1017.199219
2022-10-16T09:48:16.765Z,1017.214966
2022-10-16T09:49:12.227Z,1017.160828
2022-10-16T09:50:13.325Z,1017.2276
2022-10-16T09:51:08.636Z,1017.220093
2022-10-16T09:53:04.412Z,1017.181885
2022-10-16T09:54:04.848Z,1017.159546
2022-10-16T09:55:00.322Z,1017.159546
2022-10-16T09:56:03.144Z,1017.218262
2022-10-16T09:56:56.353Z,1017.155823
2022-10-16T09:57:56.264Z,1017.180054
2022-10-16T09:58:52.191Z,1017.168274
2022-10-16T09:59:51.863Z,1017.176331
2022-10-16T10:00:47.395Z,1017.235291
2022-10-16T10:02:43.483Z,1017.278198
2022-10-16T10:03:43.978Z,1017.263672
2022-10-16T10:04:39.396Z,1017.21759
2022-10-16T10:05:43.259Z,1017.201721
2022-10-16T10:06:37.497Z,1017.198425
2022-10-16T10:07:36.984Z,1017.176086
2022-10-16T10:08:32.559Z,1017.277832
2022-10-16T10:09:32.798Z,1017.154724
2022-10-16T10:10:30.205Z,1017.228271
2022-10-16T10:11:31.790Z,1017.193481
2022-10-16T10:13:28.213Z,1017.291931
2022-10-16T10:14:21.741Z,1017.26947
2022-10-16T10:15:24.993Z,1017.25
2022-10-16T10:16:19.207Z,1017.220093
2022-10-16T10:17:22.029Z,1017.240601
2022-10-16T10:18:17.262Z,1017.243042
2022-10-16T10:19:17.337Z,1017.311157
2022-10-16T10:20:13.109Z,1017.239441
2022-10-16T10:21:11.763Z,1017.239441
2022-10-16T10:23:09.670Z,1017.235718
2022-10-16T10:24:13.783Z,1017.307617
2022-10-16T10:26:12.493Z,1017.233276
2022-10-16T10:26:30.194Z,1017.226257
2022-10-16T10:28:29.252Z,1017.161316
2022-10-16T10:29:25.759Z,1017.165955
2022-10-16T10:30:25.680Z,1017.204285
2022-10-16T10:31:21.855Z,1017.253784
2022-10-16T10:33:18.903Z,1017.231445
2022-10-16T10:34:19.889Z,1017.247192
2022-10-16T10:35:16.158Z,1017.204285
2022-10-16T10:36:17.462Z,1017.326599
2022-10-16T10:38:13.817Z,1017.329651
2022-10-16T10:39:10.001Z,1017.294617
2022-10-16T10:40:09.261Z,1017.294617
2022-10-16T10:41:04.525Z,1017.229431
2022-10-16T10:42:04.015Z,1017.274292
2022-10-16T10:43:02.284Z,1017.350037
2022-10-16T10:43:57.686Z,1017.352844
2022-10-16T10:44:57.242Z,1017.348206
2022-10-16T10:45:53.505Z,1017.354797
2022-10-16T10:46:54.910Z,1017.318848
2022-10-16T10:47:47.629Z,1017.261414
2022-10-16T10:48:50.832Z,1017.378967
2022-10-16T10:49:46.694Z,1017.352844
2022-10-16T10:50:44.116Z,1017.295837
2022-10-16T10:52:39.380Z,1017.296814
2022-10-16T10:53:34.944Z,1017.321106
2022-10-16T10:54:37.593Z,1017.359375
2022-10-16T10:55:30.251Z,1017.285522
2022-10-16T10:56:32.677Z,1017.343445
2022-10-16T10:58:29.913Z,1017.343445
2022-10-16T10:58:35.125Z,1017.343445
2022-10-16T10:59:20.314Z,1017.386414
2022-10-16T11:00:20.254Z,1017.360229
2022-10-16T11:01:16.450Z,1017.31073
2022-10-16T11:03:10.560Z,1017.326599
2022-10-16T11:04:08.187Z,1017.339539
2022-10-16T11:05:07.961Z,1017.288391
2022-10-16T11:06:02.874Z,1017.296082
2022-10-16T11:08:40.911Z,1017.290649
2022-10-16T11:09:36.380Z,1017.223206
2022-10-16T11:10:35.303Z,1017.246582
2022-10-16T11:11:30.861Z,1017.266296
2022-10-16T11:12:33.121Z,1017.316711
2022-10-16T11:13:25.980Z,1017.300842
2022-10-16T11:14:25.586Z,1017.320496
2022-10-16T11:15:20.962Z,1017.335754
2022-10-16T11:16:21.764Z,1017.354126
2022-10-16T11:17:59.465Z,1017.355042
2022-10-16T11:18:39.107Z,1017.286194
2022-10-16T11:19:38.273Z,1017.356323
2022-10-16T11:20:35.532Z,1017.364441
2022-10-16T11:21:35.534Z,1017.343872
2022-10-16T11:22:30.831Z,1017.409241
2022-10-16T11:23:32.904Z,1017.366394
2022-10-16T11:24:25.451Z,1017.347656
2022-10-16T11:25:25.535Z,1017.378845
2022-10-16T11:26:37.170Z,1017.367554
2022-10-16T11:27:37.565Z,1017.34314
2022-10-16T11:28:33.133Z,1017.321472
2022-10-16T11:29:35.765Z,1017.28302
2022-10-16T11:30:28.206Z,1017.411194
2022-10-16T11:31:28.333Z,1017.379395
2022-10-16T11:33:23.707Z,1017.432556
2022-10-16T11:34:18.841Z,1017.501099
2022-10-16T11:35:18.408Z,1017.423157
2022-10-16T11:36:13.856Z,1017.475891
2022-10-16T11:37:14.157Z,1017.351685
2022-10-16T11:38:12.007Z,1017.404602
2022-10-16T11:39:06.994Z,1017.500916
2022-10-16T11:40:08.964Z,1017.433716
2022-10-16T11:41:01.688Z,1017.529907
2022-10-16T11:42:03.623Z,1017.413208
2022-10-16T11:42:56.074Z,1017.494446
2022-10-16T11:43:58.213Z,1017.389771
2022-10-16T11:44:50.778Z,1017.428223
2022-10-16T11:45:47.559Z,1017.35022
2022-10-16T11:47:59.327Z,1017.378662
2022-10-16T11:47:59.363Z,1017.378662
2022-10-16T11:47:59.976Z,1017.378662
2022-10-16T11:49:19.407Z,1017.300049
2022-10-16T11:49:59.095Z,1017.374695
2022-10-16T11:50:58.630Z,1017.351685
2022-10-16T11:52:37.584Z,1017.432983
2022-10-16T11:53:17.533Z,1017.324524
2022-10-16T11:54:16.731Z,1017.468201
2022-10-16T11:55:14.490Z,1017.405884
2022-10-16T11:56:13.386Z,1017.444153
2022-10-16T11:58:07.771Z,1017.438354
2022-10-16T11:59:08.036Z,1017.499084
2022-10-16T12:00:03.363Z,1017.566467
2022-10-16T12:01:02.904Z,1017.572998
2022-10-16T12:01:57.816Z,1017.584167
2022-10-16T12:02:57.698Z,1017.625427